createdAt,value
2023-03-29T05:01:16.119Z,22.08
2023-03-29T05:02:16.175Z,22.16
2023-03-29T05:03:16.215Z,22.13
2023-03-29T05:04:16.309Z,22.10
2023-03-29T05:05:16.257Z,22.07
2023-03-29T05:06:16.285Z,22.02
2023-03-29T05:07:16.275Z,22.04
2023-03-29T05:08:16.338Z,22.00
2023-03-29T05:09:16.361Z,21.99
2023-03-29T05:10:16.449Z,21.80
2023-03-29T05:11:16.494Z,21.77
2023-03-29T05:12:16.579Z,21.72
2023-03-29T05:13:16.598Z,21.66
2023-03-29T05:14:16.645Z,21.65
2023-03-29T05:15:16.672Z,21.57
2023-03-29T05:16:16.736Z,21.66
2023-03-29T05:17:16.752Z,21.65
2023-03-29T05:18:16.767Z,21.69
2023-03-29T05:19:16.864Z,21.60
2023-03-29T05:20:16.831Z,21.52
2023-03-29T05:21:16.897Z,21.69
2023-03-29T05:22:16.941Z,21.60
2023-03-29T05:23:16.956Z,21.46
2023-03-29T05:24:16.988Z,21.39
2023-03-29T05:25:17.029Z,21.57
2023-03-29T05:26:17.020Z,21.40
2023-03-29T05:27:17.123Z,21.34
2023-03-29T05:28:17.070Z,21.32
2023-03-29T05:29:17.111Z,21.37
2023-03-29T05:30:17.127Z,21.46
2023-03-29T05:31:17.342Z,21.45
2023-03-29T05:32:17.169Z,21.35
2023-03-29T05:33:17.186Z,21.51
2023-03-29T05:34:17.222Z,21.43
2023-03-29T05:35:17.217Z,21.37
2023-03-29T05:36:17.301Z,21.45
2023-03-29T05:37:17.254Z,21.43
2023-03-29T05:38:17.294Z,21.42
2023-03-29T05:39:17.366Z,21.42
2023-03-29T05:40:17.372Z,21.41
2023-03-29T05:41:17.331Z,21.32
2023-03-29T05:42:17.380Z,21.20
2023-03-29T05:43:17.371Z,21.14
2023-03-29T05:44:17.419Z,21.09
2023-03-29T05:45:17.428Z,21.07
2023-03-29T05:46:17.572Z,21.06
2023-03-29T05:47:17.544Z,21.13
2023-03-29T05:48:17.510Z,21.28
2023-03-29T05:49:17.531Z,21.20
2023-03-29T05:50:17.599Z,21.30
2023-03-29T05:51:17.628Z,21.63
2023-03-29T05:52:17.609Z,21.71
2023-03-29T05:53:17.682Z,21.63
2023-03-29T05:54:17.722Z,21.72
2023-03-29T05:55:17.764Z,21.77
2023-03-29T05:56:17.823Z,21.90
2023-03-29T05:57:17.811Z,22.00
2023-03-29T05:58:17.892Z,22.13
2023-03-29T05:59:17.942Z,22.24
2023-03-29T06:00:17.900Z,22.39
2023-03-29T06:01:18.095Z,22.56
2023-03-29T06:02:18.005Z,22.29
2023-03-29T06:04:18.229Z,22.26
2023-03-29T06:05:18.025Z,22.51
2023-03-29T06:06:18.041Z,22.51
2023-03-29T06:07:18.750Z,22.45
2023-03-29T06:08:18.008Z,22.56
2023-03-29T06:09:18.059Z,22.57
2023-03-29T06:10:18.054Z,22.61
2023-03-29T06:11:18.036Z,22.62
2023-03-29T06:12:18.048Z,22.55
2023-03-29T06:13:18.063Z,22.58
2023-03-29T06:14:18.118Z,22.65
2023-03-29T06:15:18.172Z,22.77
2023-03-29T06:16:18.253Z,22.82
2023-03-29T06:17:18.310Z,22.76
2023-03-29T06:18:18.314Z,22.73
2023-03-29T06:19:18.376Z,22.76
2023-03-29T06:20:18.451Z,22.73
2023-03-29T06:21:18.491Z,22.81
2023-03-29T06:22:18.555Z,23.17
2023-03-29T06:23:18.620Z,23.20
2023-03-29T06:24:18.645Z,22.99
2023-03-29T06:25:18.725Z,22.86
2023-03-29T06:26:18.773Z,22.95
2023-03-29T06:27:18.855Z,23.16
2023-03-29T06:28:18.869Z,23.03
2023-03-29T06:29:18.940Z,22.63
2023-03-29T06:30:18.958Z,22.76
2023-03-29T06:31:19.025Z,23.01
2023-03-29T06:32:19.020Z,23.10
2023-03-29T06:33:19.101Z,23.02
2023-03-29T06:34:19.129Z,23.01
2023-03-29T06:35:19.174Z,22.94
2023-03-29T06:36:19.228Z,23.10
2023-03-29T06:37:19.231Z,23.16
2023-03-29T06:38:19.274Z,23.01
2023-03-29T06:39:19.314Z,23.08
2023-03-29T06:40:19.389Z,23.03
2023-03-29T06:41:19.418Z,22.97
2023-03-29T06:42:21.579Z,22.95
2023-03-29T06:43:19.447Z,22.98
2023-03-29T06:44:19.514Z,22.98
2023-03-29T06:45:21.248Z,22.98
2023-03-29T06:46:19.541Z,23.03
2023-03-29T06:47:19.500Z,22.95
2023-03-29T06:48:19.520Z,23.25
2023-03-29T06:49:19.523Z,23.06
2023-03-29T06:50:19.484Z,22.97
2023-03-29T06:51:21.179Z,23.19
2023-03-29T06:52:19.589Z,23.08
2023-03-29T06:53:19.459Z,23.02
2023-03-29T06:54:19.465Z,22.98
2023-03-29T06:55:19.455Z,23.03
2023-03-29T06:56:19.416Z,22.91
2023-03-29T06:57:19.499Z,22.89
2023-03-29T06:58:21.602Z,22.83
2023-03-29T06:59:23.446Z,22.79
2023-03-29T07:00:19.427Z,22.96
2023-03-29T07:01:19.450Z,22.93
2023-03-29T07:02:35.152Z,23.07
2023-03-29T07:03:24.387Z,23.10
2023-03-29T07:04:19.433Z,23.13
2023-03-29T07:05:19.392Z,23.01
2023-03-29T07:06:19.800Z,23.04
2023-03-29T07:07:19.337Z,23.01
2023-03-29T07:08:19.393Z,22.96
2023-03-29T07:09:19.558Z,23.13
2023-03-29T07:10:19.343Z,22.66
2023-03-29T07:11:19.340Z,22.72
2023-03-29T07:12:19.348Z,22.79
2023-03-29T07:13:19.334Z,22.87
2023-03-29T07:14:19.321Z,22.90
2023-03-29T07:15:19.300Z,22.87
2023-03-29T07:16:19.418Z,22.87
2023-03-29T07:17:19.305Z,22.84
2023-03-29T07:18:19.294Z,22.84
2023-03-29T07:19:19.293Z,22.76
2023-03-29T07:20:19.278Z,22.71
2023-03-29T07:21:19.305Z,22.72
2023-03-29T07:22:19.299Z,22.78
2023-03-29T07:23:19.359Z,22.85
2023-03-29T07:24:19.304Z,22.90
2023-03-29T07:25:19.348Z,22.77
2023-03-29T07:26:28.837Z,23.07
2023-03-29T07:27:20.328Z,23.00
2023-03-29T07:28:19.377Z,22.85
2023-03-29T07:29:19.355Z,22.85
2023-03-29T07:30:19.371Z,22.98
2023-03-29T07:31:19.316Z,22.92
2023-03-29T07:32:19.311Z,23.02
2023-03-29T07:33:19.409Z,22.82
2023-03-29T07:34:19.347Z,22.87
2023-03-29T07:35:19.294Z,22.63
2023-03-29T07:36:19.377Z,22.57
2023-03-29T07:37:19.287Z,22.63
2023-03-29T07:38:19.287Z,22.65
2023-03-29T07:39:19.336Z,22.52
2023-03-29T07:40:19.250Z,22.54
2023-03-29T07:41:19.282Z,22.59
2023-03-29T07:42:19.264Z,22.65
2023-03-29T07:43:19.255Z,22.76
2023-03-29T07:44:19.201Z,22.63
2023-03-29T07:45:19.226Z,22.77
2023-03-29T07:46:20.271Z,22.88
2023-03-29T07:47:19.215Z,22.74
2023-03-29T07:48:19.240Z,22.95
2023-03-29T07:49:20.992Z,22.62
2023-03-29T07:50:19.161Z,22.67
2023-03-29T07:51:19.217Z,22.65
2023-03-29T07:52:19.206Z,22.59
2023-03-29T07:53:19.152Z,22.68
2023-03-29T07:54:19.148Z,22.68
2023-03-29T07:55:19.147Z,22.70
2023-03-29T07:56:19.133Z,22.84
2023-03-29T07:57:19.212Z,22.84
2023-03-29T07:58:19.117Z,22.92
2023-03-29T07:59:19.105Z,22.81
2023-03-29T08:00:19.155Z,22.70
2023-03-29T08:01:19.830Z,22.70
2023-03-29T08:02:19.166Z,22.73
2023-03-29T08:03:22.321Z,22.68
2023-03-29T08:04:19.221Z,22.76
2023-03-29T08:05:29.139Z,22.65
2023-03-29T08:06:25.182Z,22.68
2023-03-29T08:07:19.289Z,22.45
2023-03-29T08:08:19.065Z,22.29
2023-03-29T08:09:19.084Z,22.29
2023-03-29T08:10:19.049Z,22.24
2023-03-29T08:11:19.016Z,22.13
2023-03-29T08:12:19.047Z,22.10
2023-03-29T08:13:19.035Z,22.08
2023-03-29T08:14:19.029Z,22.13
2023-03-29T08:15:19.064Z,22.22
2023-03-29T08:16:19.027Z,22.28
2023-03-29T08:17:19.016Z,22.24
2023-03-29T08:18:19.020Z,22.30
2023-03-29T08:19:18.990Z,22.42
2023-03-29T08:20:18.980Z,22.45
2023-03-29T08:21:18.957Z,22.49
2023-03-29T08:22:18.969Z,22.42
2023-03-29T08:23:18.972Z,22.34
2023-03-29T08:24:20.891Z,22.34
2023-03-29T08:25:18.931Z,22.36
2023-03-29T08:26:18.900Z,22.47
2023-03-29T08:27:18.900Z,22.89
2023-03-29T08:28:18.891Z,23.75
2023-03-29T08:29:18.883Z,23.46
2023-03-29T08:30:18.892Z,23.43
2023-03-29T08:31:19.000Z,23.29
2023-03-29T08:32:19.001Z,23.32
2023-03-29T08:33:19.087Z,23.34
2023-03-29T08:34:19.069Z,23.70
2023-03-29T08:35:19.115Z,23.53
2023-03-29T08:36:19.205Z,23.53
2023-03-29T08:37:19.162Z,23.43
2023-03-29T08:38:19.223Z,23.37
2023-03-29T08:39:19.690Z,23.45
2023-03-29T08:40:19.287Z,23.20
2023-03-29T08:41:19.274Z,22.95
2023-03-29T08:42:19.317Z,22.65
2023-03-29T08:43:19.369Z,22.50
2023-03-29T08:44:19.390Z,22.34
2023-03-29T08:45:19.488Z,22.34
2023-03-29T08:46:19.491Z,23.28
2023-03-29T08:47:19.531Z,22.76
2023-03-29T08:48:19.566Z,22.39
2023-03-29T08:49:19.614Z,22.49
2023-03-29T08:50:19.591Z,22.60
2023-03-29T08:51:19.663Z,22.55
2023-03-29T08:52:19.674Z,23.54
2023-03-29T08:53:19.709Z,23.33
2023-03-29T08:54:19.755Z,23.36
2023-03-29T08:55:19.758Z,24.02
2023-03-29T08:56:19.780Z,24.30
2023-03-29T08:57:19.836Z,24.40
2023-03-29T08:58:19.788Z,24.30
2023-03-29T08:59:19.833Z,24.29
2023-03-29T09:00:20.393Z,24.51
2023-03-29T09:01:19.868Z,24.48
2023-03-29T09:02:19.936Z,24.42
2023-03-29T09:03:19.959Z,24.28
2023-03-29T09:04:19.883Z,24.38
2023-03-29T09:05:19.884Z,24.50
2023-03-29T09:06:19.883Z,24.38
2023-03-29T09:07:19.890Z,24.31
2023-03-29T09:08:19.881Z,24.60
2023-03-29T09:09:19.903Z,24.72
2023-03-29T09:10:19.883Z,24.73
2023-03-29T09:11:19.888Z,24.79
2023-03-29T09:12:19.929Z,24.59
2023-03-29T09:13:19.940Z,24.46
2023-03-29T09:14:19.894Z,24.50
2023-03-29T09:15:19.930Z,24.49
2023-03-29T09:16:19.953Z,24.59
2023-03-29T09:17:19.897Z,24.09
2023-03-29T09:18:19.999Z,24.28
2023-03-29T09:19:20.031Z,24.44
2023-03-29T09:20:19.960Z,24.66
2023-03-29T09:21:19.987Z,24.53
2023-03-29T09:22:19.988Z,24.78
2023-03-29T09:23:19.975Z,24.94
2023-03-29T09:24:20.029Z,25.10
2023-03-29T09:25:20.281Z,25.01
2023-03-29T09:26:20.014Z,24.87
2023-03-29T09:27:20.028Z,24.77
2023-03-29T09:28:20.039Z,24.87
2023-03-29T09:29:19.987Z,24.79
2023-03-29T09:30:19.994Z,24.93
2023-03-29T09:31:20.020Z,24.64
2023-03-29T09:32:20.029Z,24.81
2023-03-29T09:33:20.237Z,24.86
2023-03-29T09:34:20.296Z,24.99
2023-03-29T09:35:20.119Z,25.18
2023-03-29T09:36:20.625Z,25.30
2023-03-29T09:37:20.054Z,25.34
2023-03-29T09:38:20.024Z,25.46
2023-03-29T09:39:20.034Z,25.68
2023-03-29T09:40:20.067Z,25.87
2023-03-29T09:41:20.122Z,26.02
2023-03-29T09:42:20.051Z,26.02
2023-03-29T09:43:20.040Z,25.90
2023-03-29T09:44:30.107Z,26.12
2023-03-29T09:45:21.049Z,25.92
2023-03-29T09:46:20.090Z,25.93
2023-03-29T09:47:20.058Z,26.03
2023-03-29T09:48:20.023Z,25.93
2023-03-29T09:49:20.028Z,26.07
2023-03-29T09:50:30.930Z,26.04
2023-03-29T09:51:21.043Z,26.26
2023-03-29T09:52:20.025Z,26.27
2023-03-29T09:53:20.001Z,26.23
2023-03-29T09:54:20.018Z,26.26
2023-03-29T09:55:20.010Z,26.16
2023-03-29T09:56:20.001Z,26.61
2023-03-29T09:57:20.036Z,26.58
2023-03-29T09:58:19.988Z,26.60
2023-03-29T09:59:19.981Z,26.54
2023-03-29T10:00:20.074Z,26.50
2023-03-29T10:01:20.139Z,27.12
2023-03-29T10:02:20.128Z,27.18
2023-03-29T10:03:20.216Z,27.15
2023-03-29T10:04:20.288Z,26.94
2023-03-29T10:05:20.292Z,26.73
2023-03-29T10:06:20.330Z,26.81
2023-03-29T10:07:20.415Z,26.91
2023-03-29T10:08:20.460Z,26.45
2023-03-29T10:09:20.467Z,26.62
2023-03-29T10:10:20.556Z,26.50
2023-03-29T10:11:20.596Z,26.67
2023-03-29T10:12:20.620Z,26.93
2023-03-29T10:13:20.734Z,26.74
2023-03-29T10:14:20.717Z,26.84
2023-03-29T10:15:29.196Z,26.74
2023-03-29T10:16:21.798Z,26.80
2023-03-29T10:17:20.751Z,26.77
2023-03-29T10:18:20.749Z,26.84
2023-03-29T10:19:20.750Z,26.80
2023-03-29T10:20:20.736Z,27.06
2023-03-29T10:21:20.705Z,27.15
2023-03-29T10:22:20.714Z,27.12
2023-03-29T10:23:20.690Z,26.97
2023-03-29T10:24:20.687Z,27.05
2023-03-29T10:25:20.662Z,26.81
2023-03-29T10:26:20.671Z,26.64
2023-03-29T10:27:20.708Z,26.58
2023-03-29T10:28:20.722Z,26.64
2023-03-29T10:29:20.786Z,26.61
2023-03-29T10:30:20.824Z,26.49
2023-03-29T10:31:20.883Z,26.46
2023-03-29T10:33:21.036Z,26.59
2023-03-29T10:34:21.105Z,26.57
2023-03-29T10:35:21.175Z,26.66
2023-03-29T10:36:21.199Z,26.73
2023-03-29T10:37:21.340Z,26.73
2023-03-29T10:38:21.337Z,26.89
2023-03-29T10:39:21.332Z,26.80
2023-03-29T10:40:21.346Z,26.79
2023-03-29T10:41:21.383Z,26.79
2023-03-29T10:42:21.384Z,26.83
2023-03-29T10:43:21.437Z,26.81
2023-03-29T10:44:21.441Z,26.51
2023-03-29T10:45:21.463Z,26.05
2023-03-29T10:46:21.510Z,25.86
2023-03-29T10:47:21.462Z,25.67
2023-03-29T10:48:21.496Z,25.56
2023-03-29T10:49:21.501Z,25.53
2023-03-29T10:50:21.488Z,25.53
2023-03-29T10:51:21.472Z,25.37
2023-03-29T10:52:21.507Z,25.32
2023-03-29T10:53:21.499Z,25.69
2023-03-29T10:54:21.521Z,26.13
2023-03-29T10:55:21.515Z,25.86
2023-03-29T10:56:21.523Z,26.08
2023-03-29T10:57:22.894Z,25.83
2023-03-29T10:58:21.515Z,26.19
2023-03-29T10:59:21.500Z,25.97
2023-03-29T11:00:21.515Z,26.14
2023-03-29T11:01:21.620Z,26.02
2023-03-29T11:02:21.571Z,25.87
2023-03-29T11:03:21.878Z,25.80
2023-03-29T11:04:21.569Z,26.10
2023-03-29T11:05:21.562Z,26.13
2023-03-29T11:06:21.544Z,26.16
2023-03-29T11:07:21.543Z,26.00
2023-03-29T11:08:21.809Z,25.42
2023-03-29T11:09:21.577Z,25.17
2023-03-29T11:10:21.588Z,24.83
2023-03-29T11:11:21.580Z,24.47
2023-03-29T11:12:21.592Z,24.30
2023-03-29T11:13:21.558Z,24.52
2023-03-29T11:14:21.555Z,24.54
2023-03-29T11:15:21.602Z,24.45
2023-03-29T11:16:21.706Z,24.55
2023-03-29T11:17:21.713Z,24.48
2023-03-29T11:18:21.664Z,24.48
2023-03-29T11:19:21.612Z,24.38
2023-03-29T11:20:22.442Z,24.46
2023-03-29T11:21:21.638Z,24.42
2023-03-29T11:22:21.626Z,24.51
2023-03-29T11:23:21.647Z,24.57
2023-03-29T11:24:21.618Z,24.45
2023-03-29T11:25:21.637Z,24.32
2023-03-29T11:26:21.661Z,24.36
2023-03-29T11:27:21.622Z,24.39
2023-03-29T11:28:21.663Z,24.42
2023-03-29T11:29:21.653Z,24.36
2023-03-29T11:30:21.634Z,24.52
2023-03-29T11:31:21.660Z,24.72
2023-03-29T11:32:21.677Z,24.77
2023-03-29T11:33:21.683Z,24.72
2023-03-29T11:34:21.674Z,25.04
2023-03-29T11:35:21.654Z,25.03
2023-03-29T11:36:21.677Z,24.98
2023-03-29T11:37:21.642Z,25.48
2023-03-29T11:38:21.665Z,25.16
2023-03-29T11:39:21.689Z,25.04
2023-03-29T11:40:21.691Z,25.09
2023-03-29T11:41:21.662Z,25.06
2023-03-29T11:42:21.681Z,25.03
2023-03-29T11:43:21.658Z,25.02
2023-03-29T11:44:21.685Z,25.03
2023-03-29T11:45:21.691Z,25.05
2023-03-29T11:46:21.755Z,24.99
2023-03-29T11:47:21.699Z,25.03
2023-03-29T11:48:21.671Z,25.04
2023-03-29T11:49:21.680Z,25.03
2023-03-29T11:50:21.750Z,25.11
2023-03-29T11:51:21.742Z,25.22
2023-03-29T11:52:21.718Z,25.21
2023-03-29T11:53:21.751Z,25.07
2023-03-29T11:54:21.714Z,25.21
2023-03-29T11:55:21.751Z,25.10
2023-03-29T11:56:21.736Z,25.11
2023-03-29T11:57:21.816Z,25.12
2023-03-29T11:58:21.761Z,25.11
2023-03-29T11:59:21.737Z,25.06
2023-03-29T12:00:21.744Z,25.12
2023-03-29T12:01:21.749Z,25.05
2023-03-29T12:02:21.864Z,25.06
2023-03-29T12:03:21.943Z,25.05
2023-03-29T12:04:21.829Z,25.06
2023-03-29T12:05:21.751Z,25.12
2023-03-29T12:06:21.779Z,25.06
2023-03-29T12:07:21.777Z,24.87
2023-03-29T12:08:21.803Z,24.87
2023-03-29T12:09:21.804Z,24.78
2023-03-29T12:10:21.791Z,24.62
2023-03-29T12:11:21.796Z,24.48
2023-03-29T12:12:21.852Z,24.47
2023-03-29T12:13:21.895Z,24.46
2023-03-29T12:14:21.909Z,24.49
2023-03-29T12:15:21.878Z,24.44
2023-03-29T12:16:21.979Z,24.34
2023-03-29T12:17:21.889Z,24.31
2023-03-29T12:18:21.862Z,24.31
2023-03-29T12:19:21.906Z,24.30
2023-03-29T12:20:21.872Z,24.24
2023-03-29T12:21:21.933Z,24.27
2023-03-29T12:22:21.890Z,24.33
2023-03-29T12:23:21.948Z,24.24
2023-03-29T12:24:22.001Z,24.12
2023-03-29T12:25:23.322Z,24.23
2023-03-29T12:26:21.974Z,24.32
2023-03-29T12:27:22.017Z,24.21
2023-03-29T12:28:22.321Z,24.13
2023-03-29T12:29:22.298Z,24.41
2023-03-29T12:30:22.257Z,24.40
2023-03-29T12:31:22.271Z,24.64
2023-03-29T12:32:22.323Z,24.65
2023-03-29T12:33:22.332Z,25.12
2023-03-29T12:34:22.413Z,25.33
2023-03-29T12:35:22.641Z,25.31
2023-03-29T12:36:22.544Z,25.07
2023-03-29T12:37:22.736Z,24.89
2023-03-29T12:38:22.595Z,24.50
2023-03-29T12:39:22.625Z,24.61
2023-03-29T12:40:22.679Z,24.23
2023-03-29T12:41:22.688Z,24.66
2023-03-29T12:42:22.761Z,24.16
2023-03-29T12:43:22.774Z,23.95
2023-03-29T12:44:22.879Z,24.43
2023-03-29T12:45:22.926Z,24.75
2023-03-29T12:46:23.048Z,23.82
2023-03-29T12:47:22.994Z,24.03
2023-03-29T12:48:23.040Z,24.19
2023-03-29T12:49:23.047Z,23.73
2023-03-29T12:50:23.099Z,23.46
2023-03-29T12:51:23.068Z,23.67
2023-03-29T12:52:23.125Z,23.98
2023-03-29T12:53:23.233Z,23.77
2023-03-29T12:54:23.725Z,23.61
2023-03-29T12:55:23.102Z,23.43
2023-03-29T12:56:23.122Z,23.57
2023-03-29T12:57:23.283Z,23.68
2023-03-29T12:58:23.221Z,23.39
2023-03-29T12:59:23.248Z,23.36
2023-03-29T13:00:23.204Z,23.18
2023-03-29T13:01:23.460Z,23.34
2023-03-29T13:02:23.421Z,23.72
2023-03-29T13:03:23.382Z,23.56
2023-03-29T13:04:23.469Z,23.59
2023-03-29T13:05:23.364Z,23.91
2023-03-29T13:06:23.474Z,23.78
2023-03-29T13:07:23.408Z,23.95
2023-03-29T13:08:23.409Z,23.65
2023-03-29T13:09:23.417Z,23.75
